Airfield :







YOU CAN JOIN US ON...

 
LOGIN :

Register | Disclaimer

   EN    FR    IT 

 









Legend :    VFR   Marginal VFR   IFR   Intensive IFR   Very Intensive IFR
Visi :
Ceiling :
>= 8 km
>= 3000ft
5 to 8 km
1000 to 3000 ft
1500m to 5 km
500 to 1000 ft
800 to 1500m
200 to 500 ft
< 800m
< 200 ft
Symbols :   Thunderstorms  Fog  Heavy snow  Heavy precipitations  Wind > 20 kt







- Airport Elevation : 84 ft
- IATA code : YJT


CYJT - Stephenville

CURRENT METAR :
  • 220600Z 06023G35KT 12SM -RA OVC022 04/01 A2956 RMK SC8 SLP011

EXPIRED METARs :
  • 220500Z 06019KT 10SM -RA FEW008 OVC022 04/02 A2956 RMK SF1SC7 SLP013
  • 220400Z 07018G25KT 10SM -RA FEW008 OVC020 06/03 A2957 RMK SF2SC6 SLP016
  • 220337Z 06015G21KT 10SM -RA FEW008 OVC020 06/03 A2957 RMK SF2SC6 SLP015

TAF TAF CYJT
Valid from the 22 at 06:00 until the 23 at 06:00 UTC


220538Z 2206/2306 06015G25KT P6SM OVC025
TEMPO 2206/2212 P6SM -RA FEW008 OVC020
FM221200 04015G25KT P6SM BKN025
TEMPO 2212/2224 BKN020
BECMG 2216/2218 36020G35KT
FM230000 34018G28KT P6SM BKN025
TEMPO 2300/2306 BKN020 RMK NXT FCST BY 221200Z
CZQX FIR / North America



MET'MAP, your aeronautical weather chart ! - Copyright ORBIFLY December 2007 - Disclaimer

ORBIFLY MET'MAP TEAM :

Programming & Development : Alexandra Zaïnal
Concept & Development : Baudouin d'Aumeries
Co-Development & Prog : Marc-Olivier Méhu
Technical & hardware support : Manuel Goepfert

Contact : metmap@orbifly.com




SOURCES & CREDITS :

   NOAA